Junction City, Washington
Current Conditions -  °F | °C
As of 8:53 PM on Monday 20 Oct 2014 (Local Time) from KHQM Reporting Station
Light Rain Light Rain  
Wind Chill: 56°   Ceiling: 7000
Heat Index: 56°   Visibility: 8mi
Dew Point: 53°   Wind: 7mph
Humidity: 90%   Direction: 160°SSE
Pressure: 29.76"   Gusts: NA
Location:  47.1445°N, 123.771°W
Report Text: KHQM 210353Z AUTO 16006KT 8SM -RA FEW025 FEW043 OVC070 13/12 A2976 RMK AO2 SLP082 P0009 T01330117
Loading
Personal Weather Stations






























Interactive Weather Map
Tropical Storm Tracking
New forecast layout! Learn more

10-Day Weather Forecast

Advertisements
Track Severe Weather on mobile